createdAt,value
2022-10-28T00:01:24.976Z,17.22
2022-10-28T00:03:55.105Z,17.24
2022-10-28T00:06:33.733Z,17.33
2022-10-28T00:09:01.828Z,17.22
2022-10-28T00:11:31.840Z,17.18
2022-10-28T00:14:01.926Z,17.11
2022-10-28T00:16:31.689Z,17.17
2022-10-28T00:19:00.147Z,17.11
2022-10-28T00:21:30.178Z,17.20
2022-10-28T00:23:57.870Z,17.18
2022-10-28T00:26:27.686Z,17.34
2022-10-28T00:29:00.006Z,17.15
2022-10-28T00:31:29.291Z,17.10
2022-10-28T00:33:58.629Z,17.14
2022-10-28T00:36:34.322Z,17.12
2022-10-28T00:39:03.292Z,17.05
2022-10-28T00:41:33.989Z,17.00
2022-10-28T00:44:23.211Z,17.07
2022-10-28T00:46:53.194Z,17.20
2022-10-28T00:49:27.596Z,16.98
2022-10-28T00:52:01.255Z,16.86
2022-10-28T00:54:29.941Z,16.95
2022-10-28T00:56:58.215Z,16.95
2022-10-28T00:59:34.405Z,17.02
2022-10-28T01:02:02.195Z,17.01
2022-10-28T01:04:29.580Z,17.05
2022-10-28T01:06:57.464Z,17.03
2022-10-28T01:12:15.830Z,17.01
2022-10-28T01:15:20.725Z,17.03
2022-10-28T01:17:56.297Z,17.11
2022-10-28T01:21:04.747Z,16.93
2022-10-28T01:23:35.993Z,16.77
2022-10-28T01:26:25.635Z,16.81
2022-10-28T01:29:08.407Z,16.91
2022-10-28T01:31:50.233Z,16.90
2022-10-28T01:34:37.834Z,16.91
2022-10-28T01:37:14.857Z,16.83
2022-10-28T01:39:47.937Z,16.77
2022-10-28T01:42:15.430Z,16.79
2022-10-28T01:45:02.602Z,16.82
2022-10-28T01:47:43.606Z,16.75
2022-10-28T01:50:25.223Z,16.84
2022-10-28T01:52:55.779Z,16.81
2022-10-28T01:55:29.311Z,16.72
2022-10-28T01:57:58.715Z,16.84
2022-10-28T02:00:26.473Z,16.90
2022-10-28T02:02:55.650Z,16.84
2022-10-28T02:05:46.766Z,16.89
2022-10-28T02:08:35.727Z,16.81
2022-10-28T02:11:34.767Z,16.75
2022-10-28T02:14:11.409Z,16.79
2022-10-28T02:16:44.370Z,16.76
2022-10-28T02:19:47.515Z,16.58
2022-10-28T02:22:17.646Z,16.53
2022-10-28T02:25:17.668Z,16.50
2022-10-28T02:27:50.315Z,16.46
2022-10-28T02:30:24.868Z,16.60
2022-10-28T02:32:56.683Z,16.56
2022-10-28T02:35:41.106Z,16.51
2022-10-28T02:38:11.631Z,16.59
2022-10-28T02:40:40.565Z,16.70
2022-10-28T02:43:09.991Z,16.77
2022-10-28T02:45:42.407Z,16.66
2022-10-28T02:48:16.362Z,16.49
2022-10-28T02:50:47.046Z,16.44
2022-10-28T02:53:19.527Z,16.45
2022-10-28T02:55:51.027Z,16.61
2022-10-28T02:58:19.054Z,16.75
2022-10-28T03:00:47.077Z,16.65
2022-10-28T03:03:14.414Z,16.45
2022-10-28T03:05:42.000Z,16.46
2022-10-28T03:08:09.323Z,16.59
2022-10-28T03:10:36.618Z,16.52
2022-10-28T03:13:04.158Z,16.60
2022-10-28T03:15:31.443Z,16.50
2022-10-28T03:17:58.755Z,16.46
2022-10-28T03:20:26.322Z,16.27
2022-10-28T03:22:53.795Z,16.17
2022-10-28T03:25:21.275Z,16.44
2022-10-28T03:27:48.858Z,16.37
2022-10-28T03:30:18.377Z,16.49
2022-10-28T03:32:45.669Z,16.35
2022-10-28T03:35:13.280Z,16.35
2022-10-28T03:37:44.086Z,16.39
2022-10-28T03:40:12.066Z,16.38
2022-10-28T03:42:42.772Z,16.23
2022-10-28T03:45:10.609Z,16.42
2022-10-28T03:47:37.902Z,16.42
2022-10-28T03:50:05.797Z,16.34
2022-10-28T03:52:33.099Z,16.37
2022-10-28T03:55:00.427Z,16.40
2022-10-28T03:57:31.427Z,16.35
2022-10-28T03:59:58.834Z,16.46
2022-10-28T04:02:26.761Z,16.27
2022-10-28T04:04:54.413Z,16.27
2022-10-28T04:07:21.958Z,16.23
2022-10-28T04:09:51.371Z,16.22
2022-10-28T04:12:19.203Z,16.28
2022-10-28T04:14:46.537Z,16.30
2022-10-28T04:17:13.900Z,16.29
2022-10-28T04:19:41.646Z,16.29
2022-10-28T04:22:09.698Z,16.33
2022-10-28T04:24:36.976Z,16.31
2022-10-28T04:27:04.569Z,16.33
2022-10-28T04:29:32.154Z,16.40
2022-10-28T04:31:59.595Z,16.46
2022-10-28T04:34:27.166Z,16.41
2022-10-28T04:36:54.453Z,16.40
2022-10-28T04:39:21.788Z,16.32
2022-10-28T04:41:49.651Z,16.40
2022-10-28T04:44:16.947Z,16.41
2022-10-28T04:46:44.316Z,16.50
2022-10-28T04:49:11.935Z,16.38
2022-10-28T04:51:39.279Z,16.43
2022-10-28T04:54:06.759Z,16.36
2022-10-28T04:56:34.338Z,16.38
2022-10-28T04:59:01.627Z,16.35
2022-10-28T05:01:29.032Z,16.32
2022-10-28T05:03:56.712Z,16.26
2022-10-28T05:06:24.061Z,16.38
2022-10-28T05:08:51.367Z,16.35
2022-10-28T05:11:18.954Z,16.35
2022-10-28T05:13:46.293Z,16.28
2022-10-28T05:16:13.595Z,16.26
2022-10-28T05:18:41.191Z,16.36
2022-10-28T05:21:08.519Z,16.49
2022-10-28T05:23:35.842Z,16.49
2022-10-28T05:26:03.498Z,16.39
2022-10-28T05:28:30.813Z,16.38
2022-10-28T05:30:58.138Z,16.50
2022-10-28T05:33:25.693Z,16.49
2022-10-28T05:35:53.005Z,16.38
2022-10-28T05:38:20.319Z,16.49
2022-10-28T05:40:47.882Z,16.45
2022-10-28T05:43:15.179Z,16.42
2022-10-28T05:45:42.523Z,16.33
2022-10-28T05:48:10.156Z,16.31
2022-10-28T05:50:37.528Z,16.29
2022-10-28T05:53:04.816Z,16.32
2022-10-28T05:55:32.412Z,16.25
2022-10-28T05:57:59.961Z,16.24
2022-10-28T06:00:27.350Z,16.27
2022-10-28T06:03:09.232Z,16.32
2022-10-28T06:05:37.963Z,16.34
2022-10-28T06:08:05.785Z,16.30
2022-10-28T06:10:33.475Z,16.30
2022-10-28T06:12:59.297Z,16.24
2022-10-28T06:15:26.883Z,16.30
2022-10-28T06:17:54.196Z,16.28
2022-10-28T06:20:21.517Z,16.28
2022-10-28T06:22:54.140Z,16.35
2022-10-28T06:25:22.652Z,16.37
2022-10-28T06:27:57.956Z,16.32
2022-10-28T06:30:26.287Z,16.36
2022-10-28T06:32:57.098Z,16.31
2022-10-28T06:35:24.380Z,16.24
2022-10-28T06:37:56.343Z,16.32
2022-10-28T06:40:24.164Z,16.31
2022-10-28T06:43:05.340Z,16.34
2022-10-28T06:45:33.597Z,16.43
2022-10-28T06:48:04.904Z,16.47
2022-10-28T06:50:33.108Z,16.40
2022-10-28T06:53:00.965Z,16.30
2022-10-28T06:55:28.950Z,16.34
2022-10-28T06:58:00.486Z,16.32
2022-10-28T07:03:02.688Z,16.36
2022-10-28T07:05:30.375Z,16.38
2022-10-28T07:07:57.694Z,16.38
2022-10-28T07:10:25.095Z,16.43
2022-10-28T07:12:53.433Z,16.59
2022-10-28T07:15:21.653Z,16.47
2022-10-28T07:17:56.061Z,16.40
2022-10-28T07:20:26.130Z,16.33
2022-10-28T07:23:01.118Z,16.34
2022-10-28T07:25:31.818Z,16.45
2022-10-28T07:27:59.333Z,16.55
2022-10-28T07:30:27.915Z,16.44
2022-10-28T07:32:55.958Z,16.39
2022-10-28T07:35:23.535Z,16.46
2022-10-28T07:37:50.834Z,16.44
2022-10-28T07:40:20.434Z,16.44
2022-10-28T07:42:47.802Z,16.63
2022-10-28T07:45:15.262Z,16.41
2022-10-28T07:47:43.215Z,16.53
2022-10-28T07:50:11.380Z,16.63
2022-10-28T07:52:38.712Z,16.68
2022-10-28T07:55:07.701Z,16.67
2022-10-28T07:57:35.545Z,16.52
2022-10-28T08:00:04.706Z,16.76
2022-10-28T08:02:38.185Z,16.87
2022-10-28T08:05:06.298Z,16.55
2022-10-28T08:07:36.331Z,16.61
2022-10-28T08:10:06.936Z,16.72
2022-10-28T08:12:34.509Z,16.82
2022-10-28T08:15:02.678Z,16.69
2022-10-28T08:17:30.647Z,16.74
2022-10-28T08:19:58.092Z,16.80
2022-10-28T08:22:25.474Z,16.76
2022-10-28T08:24:53.050Z,16.79
2022-10-28T08:27:20.369Z,16.76
2022-10-28T08:29:47.692Z,16.97
2022-10-28T08:32:15.254Z,16.92
2022-10-28T08:34:43.709Z,16.90
2022-10-28T08:37:11.581Z,16.88
2022-10-28T08:39:40.704Z,17.11
2022-10-28T08:42:29.279Z,16.93
2022-10-28T08:45:21.334Z,16.74
2022-10-28T08:48:10.870Z,16.75
2022-10-28T08:50:46.422Z,16.89
2022-10-28T08:53:41.653Z,16.86
2022-10-28T08:56:46.154Z,16.89
2022-10-28T08:59:18.434Z,16.73
2022-10-28T09:04:42.222Z,16.94
2022-10-28T09:07:15.935Z,16.98
2022-10-28T09:09:43.250Z,16.93
2022-10-28T09:12:10.773Z,16.97
2022-10-28T09:14:44.359Z,16.92
2022-10-28T09:17:20.243Z,16.96
2022-10-28T09:19:52.760Z,16.96
2022-10-28T09:22:30.692Z,16.89
2022-10-28T09:25:01.767Z,16.93
2022-10-28T09:27:44.663Z,17.02
2022-10-28T09:30:30.442Z,17.10
2022-10-28T09:33:50.828Z,17.01
2022-10-28T09:36:27.262Z,16.95
2022-10-28T09:38:56.609Z,16.88
2022-10-28T09:41:44.344Z,16.80
2022-10-28T09:44:20.032Z,16.87
2022-10-28T09:46:49.075Z,16.96
2022-10-28T09:49:21.348Z,16.97
2022-10-28T09:51:53.387Z,16.74
2022-10-28T09:54:29.025Z,16.79
2022-10-28T09:56:56.389Z,16.71
2022-10-28T09:59:26.819Z,16.73
2022-10-28T10:01:54.282Z,16.60
2022-10-28T10:04:23.888Z,16.64
2022-10-28T10:06:54.493Z,16.68
2022-10-28T10:09:25.797Z,16.82
2022-10-28T10:11:55.913Z,16.78
2022-10-28T10:15:05.653Z,16.74
2022-10-28T10:17:44.955Z,16.75
2022-10-28T10:20:18.388Z,16.83
2022-10-28T10:22:48.270Z,16.80
2022-10-28T10:25:18.575Z,16.91
2022-10-28T10:28:05.121Z,16.80
2022-10-28T10:30:40.307Z,16.79
2022-10-28T10:33:18.619Z,17.02
2022-10-28T10:35:57.799Z,16.78
2022-10-28T10:38:28.153Z,16.80
2022-10-28T10:40:55.832Z,16.74
2022-10-28T10:43:36.759Z,16.79
2022-10-28T10:46:15.893Z,16.79
2022-10-28T10:48:43.747Z,16.83
2022-10-28T10:51:24.298Z,16.93
2022-10-28T10:54:00.821Z,16.89
2022-10-28T10:56:30.552Z,17.00
2022-10-28T10:59:02.301Z,17.04
2022-10-28T11:01:38.797Z,16.86
2022-10-28T11:04:07.860Z,16.83
2022-10-28T11:06:39.946Z,16.82
2022-10-28T11:09:17.814Z,16.85
2022-10-28T11:11:45.414Z,16.88
2022-10-28T11:14:13.382Z,16.89
2022-10-28T11:16:54.583Z,16.88
2022-10-28T11:19:24.810Z,16.79
2022-10-28T11:22:06.713Z,16.81
2022-10-28T11:24:58.184Z,16.95
2022-10-28T11:27:39.182Z,16.99
2022-10-28T11:30:13.223Z,16.92
2022-10-28T11:33:02.210Z,16.96
2022-10-28T11:35:54.655Z,16.98
2022-10-28T11:38:43.272Z,16.99
2022-10-28T11:41:32.751Z,16.98
2022-10-28T11:44:05.007Z,16.96
2022-10-28T11:46:48.359Z,16.92
2022-10-28T11:49:59.113Z,16.89
2022-10-28T11:52:45.350Z,17.00
2022-10-28T11:55:27.316Z,16.94
2022-10-28T11:58:06.233Z,16.90
2022-10-28T12:00:42.294Z,16.97
2022-10-28T12:03:34.303Z,16.91
2022-10-28T12:06:07.336Z,16.88
2022-10-28T12:08:40.885Z,17.05
2022-10-28T12:11:26.851Z,17.02
2022-10-28T12:14:22.137Z,16.96
2022-10-28T12:17:03.846Z,16.98
2022-10-28T12:19:39.041Z,16.77
2022-10-28T12:22:28.009Z,16.90
2022-10-28T12:24:56.931Z,16.95
2022-10-28T12:27:28.786Z,17.02
2022-10-28T12:30:01.568Z,17.01
2022-10-28T12:32:31.765Z,16.95
2022-10-28T12:35:03.476Z,16.95
2022-10-28T12:37:47.811Z,16.77
2022-10-28T12:40:20.802Z,16.78
2022-10-28T12:42:52.576Z,16.84
2022-10-28T12:45:20.620Z,16.85
2022-10-28T12:47:58.088Z,16.95
2022-10-28T12:50:32.300Z,16.92
2022-10-28T12:53:02.397Z,16.67
2022-10-28T12:55:42.872Z,17.03
2022-10-28T12:58:13.284Z,17.03
2022-10-28T13:00:43.951Z,17.20
2022-10-28T13:03:15.418Z,17.14
2022-10-28T13:06:12.451Z,17.11
2022-10-28T13:11:46.217Z,17.11
2022-10-28T13:14:27.832Z,17.05
2022-10-28T13:17:27.698Z,17.08
2022-10-28T13:20:07.698Z,17.08
2022-10-28T13:22:47.451Z,17.11
2022-10-28T13:25:20.633Z,17.27
2022-10-28T13:27:48.906Z,17.16
2022-10-28T13:30:17.743Z,17.12
2022-10-28T13:32:45.448Z,16.96
2022-10-28T13:35:16.323Z,16.96
2022-10-28T13:37:46.714Z,17.03
2022-10-28T13:40:34.509Z,17.07
2022-10-28T13:43:02.276Z,17.05
2022-10-28T13:45:49.491Z,16.89
2022-10-28T13:48:28.619Z,17.03
2022-10-28T13:51:11.331Z,16.76
2022-10-28T13:53:47.737Z,16.86
2022-10-28T13:56:22.426Z,16.96
2022-10-28T13:58:51.932Z,17.07
2022-10-28T14:01:56.782Z,17.19
2022-10-28T14:04:38.039Z,17.28
2022-10-28T14:07:11.328Z,17.54
2022-10-28T14:12:33.171Z,17.41
2022-10-28T14:15:05.421Z,17.46
2022-10-28T14:17:46.213Z,17.39
2022-10-28T14:20:24.275Z,17.31
2022-10-28T14:22:52.944Z,17.42
2022-10-28T14:25:43.760Z,17.25
2022-10-28T14:28:29.553Z,17.24
2022-10-28T14:31:09.231Z,17.22
2022-10-28T14:33:49.987Z,17.28
2022-10-28T14:36:17.441Z,17.16
2022-10-28T14:39:12.157Z,17.23
2022-10-28T14:41:54.919Z,17.17
2022-10-28T14:44:39.822Z,17.08
2022-10-28T14:47:18.254Z,16.91
2022-10-28T14:49:58.640Z,16.96
2022-10-28T14:52:28.890Z,16.92
2022-10-28T14:54:58.683Z,17.01
2022-10-28T14:57:33.842Z,17.05
2022-10-28T15:00:05.636Z,16.97
2022-10-28T15:02:35.270Z,16.93
2022-10-28T15:05:14.992Z,16.91
2022-10-28T15:07:42.700Z,17.01
2022-10-28T15:10:26.914Z,16.93
2022-10-28T15:12:56.360Z,16.87
2022-10-28T15:15:32.221Z,16.93
2022-10-28T15:18:00.324Z,16.97
2022-10-28T15:20:33.399Z,16.87
2022-10-28T15:23:21.588Z,16.88
2022-10-28T15:26:12.790Z,16.79
2022-10-28T15:28:40.672Z,16.84
2022-10-28T15:31:08.903Z,16.78
2022-10-28T15:33:41.791Z,16.76
2022-10-28T15:36:24.434Z,16.80
2022-10-28T15:38:52.221Z,16.83
2022-10-28T15:41:22.705Z,16.93
2022-10-28T15:43:58.808Z,16.92
2022-10-28T15:46:27.370Z,16.78
2022-10-28T15:48:56.552Z,16.73
2022-10-28T15:51:24.298Z,16.79
2022-10-28T15:53:54.093Z,16.73
2022-10-28T15:56:26.089Z,16.76
2022-10-28T15:58:59.661Z,16.67
2022-10-28T16:01:38.120Z,16.79
2022-10-28T16:04:26.109Z,16.91
2022-10-28T16:06:57.595Z,16.86
2022-10-28T16:09:34.087Z,16.68
2022-10-28T16:12:14.396Z,16.54
2022-10-28T16:14:47.387Z,16.66
2022-10-28T16:17:23.004Z,16.81
2022-10-28T16:19:54.677Z,16.67
2022-10-28T16:22:23.737Z,16.76
2022-10-28T16:24:53.348Z,16.65
2022-10-28T16:27:22.687Z,16.66
2022-10-28T16:29:50.674Z,16.66
2022-10-28T16:32:25.186Z,16.75
2022-10-28T16:34:52.514Z,16.68
2022-10-28T16:37:23.180Z,16.75
2022-10-28T16:39:50.699Z,16.81
2022-10-28T16:42:19.604Z,16.71
2022-10-28T16:44:47.266Z,16.61
2022-10-28T16:47:19.486Z,16.79
2022-10-28T16:49:54.197Z,16.86
2022-10-28T16:52:29.143Z,16.72
2022-10-28T16:54:57.085Z,16.92
2022-10-28T16:59:57.301Z,16.87
2022-10-28T17:02:30.852Z,16.64
2022-10-28T17:04:58.898Z,16.62
2022-10-28T17:07:27.183Z,16.77
2022-10-28T17:09:54.603Z,16.73
2022-10-28T17:12:24.384Z,16.60
2022-10-28T17:14:51.709Z,16.38
2022-10-28T17:17:19.282Z,16.56
2022-10-28T17:19:46.977Z,16.53
2022-10-28T17:22:14.435Z,16.72
2022-10-28T17:24:41.736Z,16.81
2022-10-28T17:27:09.319Z,16.77
2022-10-28T17:29:36.690Z,16.63
2022-10-28T17:32:04.729Z,16.69
2022-10-28T17:34:32.469Z,16.73
2022-10-28T17:36:59.752Z,16.76
2022-10-28T17:39:27.040Z,16.76
2022-10-28T17:41:54.869Z,16.75
2022-10-28T17:44:22.222Z,16.49
2022-10-28T17:46:51.037Z,16.60
2022-10-28T17:49:18.718Z,16.71
2022-10-28T17:51:46.116Z,16.71
2022-10-28T17:54:13.543Z,16.68
2022-10-28T17:56:42.233Z,16.82
2022-10-28T17:59:09.762Z,16.70
2022-10-28T18:01:37.233Z,16.76
2022-10-28T18:04:06.118Z,16.85
2022-10-28T18:06:33.526Z,16.99
2022-10-28T18:09:01.104Z,16.92
2022-10-28T18:11:31.267Z,16.88
2022-10-28T18:13:58.661Z,16.74
2022-10-28T18:16:28.055Z,16.67
2022-10-28T18:18:56.113Z,16.73
2022-10-28T18:21:24.455Z,16.69
2022-10-28T18:23:52.966Z,16.76
2022-10-28T18:26:21.097Z,16.89
2022-10-28T18:28:49.059Z,16.81
2022-10-28T18:31:18.447Z,16.74
2022-10-28T18:33:46.624Z,16.76
2022-10-28T18:36:19.170Z,16.75
2022-10-28T18:38:47.082Z,16.80
2022-10-28T18:41:22.140Z,16.60
2022-10-28T18:43:57.123Z,16.60
2022-10-28T18:46:25.566Z,16.62
2022-10-28T18:48:53.550Z,16.57
2022-10-28T18:51:20.918Z,16.73
2022-10-28T18:53:49.243Z,16.80
2022-10-28T18:56:18.874Z,16.75
2022-10-28T18:58:49.177Z,16.74
2022-10-28T19:01:22.424Z,16.81
2022-10-28T19:04:00.676Z,16.89
2022-10-28T19:06:32.340Z,16.84
2022-10-28T19:09:02.210Z,16.79
2022-10-28T19:11:31.490Z,16.60
2022-10-28T19:14:00.693Z,16.67
2022-10-28T19:16:28.704Z,16.86
2022-10-28T19:18:57.466Z,16.81
2022-10-28T19:21:25.797Z,16.55
2022-10-28T19:23:53.121Z,16.69
2022-10-28T19:26:20.892Z,16.74
2022-10-28T19:28:49.300Z,16.61
2022-10-28T19:31:19.220Z,16.83
2022-10-28T19:33:46.832Z,16.84
2022-10-28T19:36:25.380Z,16.76
2022-10-28T19:38:53.779Z,16.78
2022-10-28T19:41:23.832Z,16.92
2022-10-28T19:43:58.049Z,16.75
2022-10-28T19:46:28.132Z,16.84
2022-10-28T19:48:57.394Z,16.69
2022-10-28T19:51:27.375Z,16.56
2022-10-28T19:53:57.125Z,16.56
2022-10-28T19:56:24.980Z,16.58
2022-10-28T19:58:54.263Z,16.68
2022-10-28T20:01:23.330Z,16.82
2022-10-28T20:03:51.791Z,16.70
2022-10-28T20:06:22.593Z,16.56
2022-10-28T20:08:50.304Z,16.70
2022-10-28T20:11:38.083Z,16.66
2022-10-28T20:14:12.259Z,16.58
2022-10-28T20:16:42.535Z,16.72
2022-10-28T20:19:10.731Z,16.67
2022-10-28T20:21:38.273Z,16.66
2022-10-28T20:24:06.874Z,16.62
2022-10-28T20:26:36.006Z,16.73
2022-10-28T20:29:03.608Z,16.82
2022-10-28T20:31:32.165Z,16.87
2022-10-28T20:34:03.440Z,16.72
2022-10-28T20:36:36.552Z,16.76
2022-10-28T20:39:10.847Z,16.49
2022-10-28T20:41:39.430Z,16.41
2022-10-28T20:44:07.093Z,16.53
2022-10-28T20:46:35.146Z,16.62
2022-10-28T20:49:02.998Z,16.62
2022-10-28T20:51:31.835Z,16.61
2022-10-28T20:53:59.296Z,16.69
2022-10-28T20:56:29.089Z,16.59
2022-10-28T20:58:57.780Z,16.68
2022-10-28T21:01:30.229Z,16.69
2022-10-28T21:04:00.631Z,16.83
2022-10-28T21:06:29.109Z,16.61
2022-10-28T21:08:56.953Z,16.77
2022-10-28T21:11:25.123Z,16.43
2022-10-28T21:13:54.869Z,16.72
2022-10-28T21:16:22.676Z,16.68
2022-10-28T21:18:50.318Z,16.56
2022-10-28T21:21:18.947Z,16.48
2022-10-28T21:23:47.154Z,16.56
2022-10-28T21:26:14.748Z,16.68
2022-10-28T21:28:42.062Z,16.70
2022-10-28T21:31:14.348Z,16.55
2022-10-28T21:33:42.936Z,16.48
2022-10-28T21:36:20.844Z,16.40
2022-10-28T21:38:48.543Z,16.67
2022-10-28T21:41:19.920Z,16.65
2022-10-28T21:43:49.718Z,16.65
2022-10-28T21:46:18.064Z,16.69
2022-10-28T21:48:45.694Z,16.74
2022-10-28T21:51:15.361Z,16.73
2022-10-28T21:53:43.959Z,16.76
2022-10-28T21:56:18.221Z,16.68
2022-10-28T21:58:47.754Z,16.78
2022-10-28T22:01:20.572Z,16.84
2022-10-28T22:03:48.405Z,16.77
2022-10-28T22:06:15.781Z,16.92
2022-10-28T22:08:43.095Z,16.92
2022-10-28T22:11:15.782Z,17.02
2022-10-28T22:13:43.340Z,16.88
2022-10-28T22:16:12.925Z,16.74
2022-10-28T22:18:40.576Z,16.55
2022-10-28T22:21:11.474Z,16.68
2022-10-28T22:23:39.306Z,16.76
2022-10-28T22:26:08.966Z,16.70
2022-10-28T22:28:36.791Z,16.75
2022-10-28T22:31:06.934Z,16.58
2022-10-28T22:33:34.328Z,16.69
2022-10-28T22:36:04.596Z,16.65
2022-10-28T22:38:32.528Z,16.84
2022-10-28T22:41:07.209Z,16.83
2022-10-28T22:43:34.777Z,16.90
2022-10-28T22:46:02.729Z,16.86
2022-10-28T22:48:30.940Z,16.86
2022-10-28T22:50:59.134Z,16.76
2022-10-28T22:53:26.568Z,16.78
2022-10-28T22:55:54.290Z,16.85
2022-10-28T22:58:23.133Z,16.86
2022-10-28T23:00:50.775Z,16.80
2022-10-28T23:03:18.297Z,16.71
2022-10-28T23:05:46.031Z,16.70
2022-10-28T23:08:16.302Z,16.80
2022-10-28T23:10:43.629Z,16.72
2022-10-28T23:13:12.264Z,16.73
2022-10-28T23:15:39.572Z,16.83
2022-10-28T23:18:06.942Z,16.80
2022-10-28T23:20:35.706Z,16.80
2022-10-28T23:23:03.013Z,16.53
2022-10-28T23:25:30.545Z,16.59
2022-10-28T23:27:58.347Z,16.73
2022-10-28T23:30:25.926Z,16.67
2022-10-28T23:32:53.255Z,16.85
2022-10-28T23:35:20.819Z,16.76
2022-10-28T23:37:48.109Z,16.60
2022-10-28T23:40:15.569Z,16.56
2022-10-28T23:42:43.164Z,16.36
2022-10-28T23:45:10.492Z,16.42
2022-10-28T23:47:37.836Z,16.33
2022-10-28T23:50:05.500Z,16.25
2022-10-28T23:52:32.809Z,16.22
2022-10-28T23:55:00.106Z,16.15
2022-10-28T23:57:27.646Z,16.31
2022-10-28T23:59:54.946Z,16.17
